Milouin — FT9009 — position and weather

sailwx.info

Track history (hours):
 
Tides and Currents Weather Stations Pressure Air Temp Water Temp Dewpoint Dewpoint Depression Visibility Wind Speed Wind Dir Waves Ship Positions

Milouin

Last reported at 2015-Jul-05 12:29 UTC. Time now 2015-Jul-05 13:23 UTC.
Position N 47°18' W 002°07'.

Length 36 m; draft 2.5 m.

Type: Ship. MMSI: 227003190.

Date/timePositionNaut miles runAvg speedWind from/ knotsBaromVisibWave heightAir tempDewpointWater temp
2015-Jul-05 12:29N 47°18' W 002°07'0 0.0
2015-Jul-05 10:30N 47°18' W 002°06'0 0.1
2015-Jul-05 09:31N 47°18' W 002°07'4 0.7
2015-Jul-05 04:08N 47°17' W 002°01'0 0.0
2015-Jul-05 03:20N 47°17' W 002°01'0 0.0
2015-Jul-05 02:32N 47°17' W 002°01'0 0.0
2015-Jul-05 01:08N 47°17' W 002°01'0 0.0
2015-Jul-05 00:08N 47°17' W 002°01'0 0.0
2015-Jul-04 22:15N 47°17' W 002°01'0 0.0
2015-Jul-04 12:15N 47°17' W 002°01'3 4.6
2015-Jul-04 11:33N 47°18' W 002°06'0 0.2
2015-Jul-04 10:27N 47°18' W 002°06'0 0.0
2015-Jul-04 09:15N 47°18' W 002°06'0 0.1
2015-Jul-04 08:28N 47°18' W 002°06'0 0.2
2015-Jul-04 07:30N 47°18' W 002°06'0 0.3
2015-Jul-04 06:32N 47°18' W 002°06'1 0.7
2015-Jul-04 05:33N 47°18' W 002°05'3 0.8
2015-Jul-04 02:13N 47°17' W 002°01'0 0.0
2015-Jul-04 01:31N 47°17' W 002°01'0 0.0
2015-Jul-03 23:26N 47°17' W 002°01'3 0.3
2015-Jul-03 11:06N 47°18' W 002°06'0 0.1
2015-Jul-03 08:20N 47°18' W 002°06'0 0.1
2015-Jul-03 07:28N 47°18' W 002°06'0 0.1
2015-Jul-03 06:33N 47°18' W 002°06'0 0.1
2015-Jul-03 05:33N 47°18' W 002°06'3 3.5
2015-Jul-03 04:33N 47°17' W 002°01'0 0.0
2015-Jul-03 03:33N 47°17' W 002°01'0 0.0
2015-Jul-03 02:30N 47°17' W 002°01'0 0.0
2015-Jul-03 01:33N 47°17' W 002°01'0 0.0
2015-Jul-03 00:30N 47°17' W 002°01'0 0.0
2015-Jul-02 23:33N 47°17' W 002°01'0 0.0
2015-Jul-02 22:33N 47°17' W 002°01'0 0.0
2015-Jul-02 21:30N 47°17' W 002°01'0 0.0
2015-Jul-02 20:24N 47°17' W 002°01'0 0.0
2015-Jul-02 19:33N 47°17' W 002°01'1 0.1
2015-Jul-02 12:33N 47°18' W 002°02'5 4.4
2015-Jul-02 11:22N 47°17' W 002°10'6 0.9
2015-Jul-02 05:09N 47°18' W 002°01'0 0.1
2015-Jul-02 01:03N 47°17' W 002°01'0 0.0
2015-Jul-02 00:33N 47°17' W 002°01'0 0.0
2015-Jul-01 23:28N 47°17' W 002°01'0 0.0
2015-Jul-01 22:27N 47°17' W 002°01'0 0.0
2015-Jul-01 16:33N 47°17' W 002°01'0 0.3
2015-Jul-01 15:33N 47°18' W 002°01'4 0.4
2015-Jul-01 06:31N 47°18' W 002°06'0 0.0
2015-Jul-01 05:34N 47°18' W 002°06'4 3.3
2015-Jul-01 04:27N 47°17' W 002°01'0 0.0
2015-Jul-01 03:30N 47°17' W 002°01'0 0.0
2015-Jul-01 00:09N 47°17' W 002°01'0 0.0
2015-Jun-30 23:33N 47°17' W 002°01'1 0.0
2015-Jun-30 09:26N 47°18' W 002°02'3 3.2
2015-Jun-30 08:25N 47°18' W 002°06'0 0.0
2015-Jun-30 07:34N 47°18' W 002°06'0 0.2
2015-Jun-30 06:33N 47°18' W 002°06'3 3.2
2015-Jun-30 05:33N 47°18' W 002°02'0 0.5
2015-Jun-30 04:29N 47°17' W 002°01'0 0.0
2015-Jun-30 03:26N 47°17' W 002°01'0 0.0
2015-Jun-30 02:32N 47°17' W 002°01'0 0.0
2015-Jun-30 01:32N 47°17' W 002°01'0 0.0
2015-Jun-30 00:32N 47°17' W 002°01'0 0.0
2015-Jun-29 23:32N 47°17' W 002°01'0 0.0
2015-Jun-29 22:32N 47°17' W 002°01'0 0.0
2015-Jun-29 21:32N 47°17' W 002°01'0 0.0
2015-Jun-29 20:29N 47°17' W 002°01'0 0.0
2015-Jun-29 19:17N 47°17' W 002°01'0 0.0
2015-Jun-29 18:17N 47°17' W 002°01'0 0.1
2015-Jun-29 16:33N 47°17' W 002°01'9 9.0
2015-Jun-29 15:32N 47°13' W 001°49'1 1.2
2015-Jun-29 14:28N 47°13' W 001°47'1 1.0
2015-Jun-29 13:31N 47°12' W 001°46'0 0.0
2015-Jun-29 12:16N 47°12' W 001°46'0 0.0
2015-Jun-29 11:31N 47°12' W 001°46'0 0.0
2015-Jun-29 10:28N 47°12' W 001°46'0 0.0
2015-Jun-29 09:31N 47°12' W 001°46'0 0.0
2015-Jun-29 08:31N 47°12' W 001°46'0 0.0
2015-Jun-29 07:28N 47°12' W 001°46'0 0.0
2015-Jun-29 06:31N 47°12' W 001°46'0 0.0
2015-Jun-29 05:31N 47°12' W 001°46'0 0.0
2015-Jun-29 04:31N 47°12' W 001°46'0 0.0
2015-Jun-29 03:31N 47°12' W 001°46'0 0.0
2015-Jun-29 02:28N 47°12' W 001°46'0 0.0
2015-Jun-29 01:31N 47°12' W 001°46'0 0.0
2015-Jun-29 00:28N 47°12' W 001°46'0 0.0
2015-Jun-28 23:31N 47°12' W 001°46'0 0.0
2015-Jun-28 22:31N 47°12' W 001°46'0 0.0
2015-Jun-28 21:28N 47°12' W 001°46'0 0.0
2015-Jun-28 20:28N 47°12' W 001°46'0 0.0
2015-Jun-28 19:19N 47°12' W 001°46'0 0.0
2015-Jun-28 18:31N 47°12' W 001°46'0 0.0
2015-Jun-28 17:22N 47°12' W 001°46'0 0.0
2015-Jun-28 16:28N 47°12' W 001°46'0 0.0
2015-Jun-28 15:31N 47°12' W 001°46'0 0.0
2015-Jun-28 14:16N 47°12' W 001°46'0 0.0
2015-Jun-28 13:25N 47°12' W 001°46'0 0.0
2015-Jun-28 11:22N 47°12' W 001°46'0 0.0
2015-Jun-28 10:22N 47°12' W 001°46'0 0.0
2015-Jun-28 09:31N 47°12' W 001°46'0 0.0
2015-Jun-28 08:28N 47°12' W 001°46'0 0.0
2015-Jun-28 07:31N 47°12' W 001°46'0 0.0
2015-Jun-28 06:28N 47°12' W 001°46'0 0.0
2015-Jun-28 05:31N 47°12' W 001°46'0 0.0
2015-Jun-28 04:28N 47°12' W 001°46'0 0.0
2015-Jun-28 03:31N 47°12' W 001°46'0 0.0
2015-Jun-28 02:31N 47°12' W 001°46'0 0.0
2015-Jun-28 01:31N 47°12' W 001°46'0 0.0
2015-Jun-28 00:31N 47°12' W 001°46'0 0.0
2015-Jun-27 23:31N 47°12' W 001°46'0 0.0
2015-Jun-27 22:28N 47°12' W 001°46'0 0.0
2015-Jun-27 21:28N 47°12' W 001°46'0 0.0
2015-Jun-27 20:31N 47°12' W 001°46'0 0.0
2015-Jun-27 19:31N 47°12' W 001°46'0 0.0
2015-Jun-27 07:25N 47°12' W 001°46'0 0.0
2015-Jun-27 06:31N 47°12' W 001°46'0 0.0
2015-Jun-27 05:31N 47°12' W 001°46'0 0.0
2015-Jun-27 03:13N 47°12' W 001°46'0 0.0
2015-Jun-26 21:16N 47°12' W 001°46'0 0.0
2015-Jun-26 20:31N 47°12' W 001°46'0 0.0
2015-Jun-26 19:31N 47°12' W 001°46'0 0.0
2015-Jun-26 18:31N 47°12' W 001°46'0 0.0
2015-Jun-26 17:28N 47°12' W 001°46'0 0.0
2015-Jun-26 16:31N 47°12' W 001°46'0 0.0
2015-Jun-26 15:31N 47°12' W 001°46'0 0.0
2015-Jun-26 14:25N 47°12' W 001°46'  
Track history (hours):
 
Tides and Currents Weather Stations Pressure Air Temp Water Temp Dewpoint Dewpoint Depression Visibility Wind Speed Wind Dir Waves Ship Positions

Milouin

Last reported at 2015-Jul-05 12:29 UTC. Time now 2015-Jul-05 13:23 UTC.
Position N 47°18' W 002°07'.

Length 36 m; draft 2.5 m.

Type: Ship. MMSI: 227003190.

Date/timePositionNaut miles runAvg speedWind from/ knotsBaromVisibWave heightAir tempDewpointWater temp
2015-Jul-05 12:29N 47°18' W 002°07'0 0.0
2015-Jul-05 10:30N 47°18' W 002°06'0 0.1
2015-Jul-05 09:31N 47°18' W 002°07'4 0.7
2015-Jul-05 04:08N 47°17' W 002°01'0 0.0
2015-Jul-05 03:20N 47°17' W 002°01'0 0.0
2015-Jul-05 02:32N 47°17' W 002°01'0 0.0
2015-Jul-05 01:08N 47°17' W 002°01'0 0.0
2015-Jul-05 00:08N 47°17' W 002°01'0 0.0
2015-Jul-04 22:15N 47°17' W 002°01'0 0.0
2015-Jul-04 12:15N 47°17' W 002°01'3 4.6
2015-Jul-04 11:33N 47°18' W 002°06'0 0.2
2015-Jul-04 10:27N 47°18' W 002°06'0 0.0
2015-Jul-04 09:15N 47°18' W 002°06'0 0.1
2015-Jul-04 08:28N 47°18' W 002°06'0 0.2
2015-Jul-04 07:30N 47°18' W 002°06'0 0.3
2015-Jul-04 06:32N 47°18' W 002°06'1 0.7
2015-Jul-04 05:33N 47°18' W 002°05'3 0.8
2015-Jul-04 02:13N 47°17' W 002°01'0 0.0
2015-Jul-04 01:31N 47°17' W 002°01'0 0.0
2015-Jul-03 23:26N 47°17' W 002°01'3 0.3
2015-Jul-03 11:06N 47°18' W 002°06'0 0.1
2015-Jul-03 08:20N 47°18' W 002°06'0 0.1
2015-Jul-03 07:28N 47°18' W 002°06'0 0.1
2015-Jul-03 06:33N 47°18' W 002°06'0 0.1
2015-Jul-03 05:33N 47°18' W 002°06'3 3.5
2015-Jul-03 04:33N 47°17' W 002°01'0 0.0
2015-Jul-03 03:33N 47°17' W 002°01'0 0.0
2015-Jul-03 02:30N 47°17' W 002°01'0 0.0
2015-Jul-03 01:33N 47°17' W 002°01'0 0.0
2015-Jul-03 00:30N 47°17' W 002°01'0 0.0
2015-Jul-02 23:33N 47°17' W 002°01'0 0.0
2015-Jul-02 22:33N 47°17' W 002°01'0 0.0
2015-Jul-02 21:30N 47°17' W 002°01'0 0.0
2015-Jul-02 20:24N 47°17' W 002°01'0 0.0
2015-Jul-02 19:33N 47°17' W 002°01'1 0.1
2015-Jul-02 12:33N 47°18' W 002°02'5 4.4
2015-Jul-02 11:22N 47°17' W 002°10'6 0.9
2015-Jul-02 05:09N 47°18' W 002°01'0 0.1
2015-Jul-02 01:03N 47°17' W 002°01'0 0.0
2015-Jul-02 00:33N 47°17' W 002°01'0 0.0
2015-Jul-01 23:28N 47°17' W 002°01'0 0.0
2015-Jul-01 22:27N 47°17' W 002°01'0 0.0
2015-Jul-01 16:33N 47°17' W 002°01'0 0.3
2015-Jul-01 15:33N 47°18' W 002°01'4 0.4
2015-Jul-01 06:31N 47°18' W 002°06'0 0.0
2015-Jul-01 05:34N 47°18' W 002°06'4 3.3
2015-Jul-01 04:27N 47°17' W 002°01'0 0.0
2015-Jul-01 03:30N 47°17' W 002°01'0 0.0
2015-Jul-01 00:09N 47°17' W 002°01'0 0.0
2015-Jun-30 23:33N 47°17' W 002°01'1 0.0
2015-Jun-30 09:26N 47°18' W 002°02'3 3.2
2015-Jun-30 08:25N 47°18' W 002°06'0 0.0
2015-Jun-30 07:34N 47°18' W 002°06'0 0.2
2015-Jun-30 06:33N 47°18' W 002°06'3 3.2
2015-Jun-30 05:33N 47°18' W 002°02'0 0.5
2015-Jun-30 04:29N 47°17' W 002°01'0 0.0
2015-Jun-30 03:26N 47°17' W 002°01'0 0.0
2015-Jun-30 02:32N 47°17' W 002°01'0 0.0
2015-Jun-30 01:32N 47°17' W 002°01'0 0.0
2015-Jun-30 00:32N 47°17' W 002°01'0 0.0
2015-Jun-29 23:32N 47°17' W 002°01'0 0.0
2015-Jun-29 22:32N 47°17' W 002°01'0 0.0
2015-Jun-29 21:32N 47°17' W 002°01'0 0.0
2015-Jun-29 20:29N 47°17' W 002°01'0 0.0
2015-Jun-29 19:17N 47°17' W 002°01'0 0.0
2015-Jun-29 18:17N 47°17' W 002°01'0 0.1
2015-Jun-29 16:33N 47°17' W 002°01'9 9.0
2015-Jun-29 15:32N 47°13' W 001°49'1 1.2
2015-Jun-29 14:28N 47°13' W 001°47'1 1.0
2015-Jun-29 13:31N 47°12' W 001°46'0 0.0
2015-Jun-29 12:16N 47°12' W 001°46'0 0.0
2015-Jun-29 11:31N 47°12' W 001°46'0 0.0
2015-Jun-29 10:28N 47°12' W 001°46'0 0.0
2015-Jun-29 09:31N 47°12' W 001°46'0 0.0
2015-Jun-29 08:31N 47°12' W 001°46'0 0.0
2015-Jun-29 07:28N 47°12' W 001°46'0 0.0
2015-Jun-29 06:31N 47°12' W 001°46'0 0.0
2015-Jun-29 05:31N 47°12' W 001°46'0 0.0
2015-Jun-29 04:31N 47°12' W 001°46'0 0.0
2015-Jun-29 03:31N 47°12' W 001°46'0 0.0
2015-Jun-29 02:28N 47°12' W 001°46'0 0.0
2015-Jun-29 01:31N 47°12' W 001°46'0 0.0
2015-Jun-29 00:28N 47°12' W 001°46'0 0.0
2015-Jun-28 23:31N 47°12' W 001°46'0 0.0
2015-Jun-28 22:31N 47°12' W 001°46'0 0.0
2015-Jun-28 21:28N 47°12' W 001°46'0 0.0
2015-Jun-28 20:28N 47°12' W 001°46'0 0.0
2015-Jun-28 19:19N 47°12' W 001°46'0 0.0
2015-Jun-28 18:31N 47°12' W 001°46'0 0.0
2015-Jun-28 17:22N 47°12' W 001°46'0 0.0
2015-Jun-28 16:28N 47°12' W 001°46'0 0.0
2015-Jun-28 15:31N 47°12' W 001°46'0 0.0
2015-Jun-28 14:16N 47°12' W 001°46'0 0.0
2015-Jun-28 13:25N 47°12' W 001°46'0 0.0
2015-Jun-28 11:22N 47°12' W 001°46'0 0.0
2015-Jun-28 10:22N 47°12' W 001°46'0 0.0
2015-Jun-28 09:31N 47°12' W 001°46'0 0.0
2015-Jun-28 08:28N 47°12' W 001°46'0 0.0
2015-Jun-28 07:31N 47°12' W 001°46'0 0.0
2015-Jun-28 06:28N 47°12' W 001°46'0 0.0
2015-Jun-28 05:31N 47°12' W 001°46'0 0.0
2015-Jun-28 04:28N 47°12' W 001°46'0 0.0
2015-Jun-28 03:31N 47°12' W 001°46'0 0.0
2015-Jun-28 02:31N 47°12' W 001°46'0 0.0
2015-Jun-28 01:31N 47°12' W 001°46'0 0.0
2015-Jun-28 00:31N 47°12' W 001°46'0 0.0
2015-Jun-27 23:31N 47°12' W 001°46'0 0.0
2015-Jun-27 22:28N 47°12' W 001°46'0 0.0
2015-Jun-27 21:28N 47°12' W 001°46'0 0.0
2015-Jun-27 20:31N 47°12' W 001°46'0 0.0
2015-Jun-27 19:31N 47°12' W 001°46'0 0.0
2015-Jun-27 07:25N 47°12' W 001°46'0 0.0
2015-Jun-27 06:31N 47°12' W 001°46'0 0.0
2015-Jun-27 05:31N 47°12' W 001°46'0 0.0
2015-Jun-27 03:13N 47°12' W 001°46'0 0.0
2015-Jun-26 21:16N 47°12' W 001°46'0 0.0
2015-Jun-26 20:31N 47°12' W 001°46'0 0.0
2015-Jun-26 19:31N 47°12' W 001°46'0 0.0
2015-Jun-26 18:31N 47°12' W 001°46'0 0.0
2015-Jun-26 17:28N 47°12' W 001°46'0 0.0
2015-Jun-26 16:31N 47°12' W 001°46'0 0.0
2015-Jun-26 15:31N 47°12' W 001°46'0 0.0
2015-Jun-26 14:25N 47°12' W 001°46'  

Dump ship's entire track history